createdAt,value
2023-01-13T00:01:29.359Z,98084.02
2023-01-13T00:03:57.813Z,98085.02
2023-01-13T00:06:26.223Z,98082.52
2023-01-13T00:08:55.005Z,98080.57
2023-01-13T00:11:24.556Z,98081.20
2023-01-13T00:13:52.618Z,98075.98
2023-01-13T00:16:21.335Z,98081.04
2023-01-13T00:18:51.366Z,98081.15
2023-01-13T00:21:24.568Z,98077.03
2023-01-13T00:23:54.516Z,98080.38
2023-01-13T00:26:28.555Z,98080.89
2023-01-13T00:28:58.669Z,98078.22
2023-01-13T00:31:28.713Z,98077.59
2023-01-13T00:33:58.720Z,98080.32
2023-01-13T00:36:27.518Z,98085.05
2023-01-13T00:38:55.376Z,98087.46
2023-01-13T00:41:25.413Z,98085.18
2023-01-13T00:43:53.818Z,98084.57
2023-01-13T00:46:22.981Z,98084.80
2023-01-13T00:48:51.670Z,98081.64
2023-01-13T00:51:21.756Z,98083.51
2023-01-13T00:53:51.772Z,98083.45
2023-01-13T00:56:39.055Z,98081.10
2023-01-13T00:59:11.003Z,98084.00
2023-01-13T01:01:40.023Z,98083.71
2023-01-13T01:04:08.221Z,98081.48
2023-01-13T01:06:36.123Z,98081.23
2023-01-13T01:09:04.823Z,98079.64
2023-01-13T01:11:34.050Z,98088.90
2023-01-13T01:14:04.064Z,98085.67
2023-01-13T01:16:33.650Z,98078.46
2023-01-13T01:19:02.670Z,98076.94
2023-01-13T01:21:31.165Z,98073.92
2023-01-13T01:24:01.664Z,98071.88
2023-01-13T01:26:30.738Z,98067.85
2023-01-13T01:28:59.685Z,98068.37
2023-01-13T01:31:33.497Z,98064.83
2023-01-13T01:34:02.391Z,98063.04
2023-01-13T01:36:30.455Z,98058.31
2023-01-13T01:38:59.606Z,98057.55
2023-01-13T01:41:31.967Z,98059.40
2023-01-13T01:44:04.623Z,98056.94
2023-01-13T01:46:36.904Z,98053.81
2023-01-13T01:49:14.105Z,98049.03
2023-01-13T01:52:16.342Z,98047.82
2023-01-13T01:54:49.126Z,98046.80
2023-01-13T01:57:26.541Z,98042.21
2023-01-13T01:59:55.302Z,98045.73
2023-01-13T02:02:23.639Z,98048.31
2023-01-13T02:04:55.097Z,98049.79
2023-01-13T02:07:29.882Z,98050.69
2023-01-13T02:10:01.945Z,98046.73
2023-01-13T02:12:32.633Z,98045.83
2023-01-13T02:15:22.431Z,98042.21
2023-01-13T02:18:09.149Z,98038.02
2023-01-13T02:20:43.015Z,98036.05
2023-01-13T02:24:08.201Z,98037.73
2023-01-13T02:27:03.414Z,98035.49
2023-01-13T02:30:05.772Z,98035.45
2023-01-13T02:33:14.076Z,98034.99
2023-01-13T02:35:55.766Z,98033.19
2023-01-13T02:38:31.414Z,98032.16
2023-01-13T02:41:33.698Z,98036.92
2023-01-13T02:44:06.964Z,98039.73
2023-01-13T02:46:42.603Z,98040.67
2023-01-13T02:49:17.079Z,98044.33
2023-01-13T02:51:47.551Z,98048.97
2023-01-13T02:54:24.584Z,98048.52
2023-01-13T02:56:54.855Z,98050.91
2023-01-13T02:59:26.383Z,98060.86
2023-01-13T03:01:57.776Z,98063.15
2023-01-13T03:04:50.593Z,98058.68
2023-01-13T03:07:36.969Z,98055.83
2023-01-13T03:10:25.676Z,98060.58
2023-01-13T03:12:53.616Z,98063.09
2023-01-13T03:15:40.554Z,98058.21
2023-01-13T03:18:28.788Z,98060.68
2023-01-13T03:21:11.801Z,98059.69
2023-01-13T03:23:50.708Z,98064.46
2023-01-13T03:26:44.582Z,98064.79
2023-01-13T03:29:23.642Z,98066.41
2023-01-13T03:32:13.291Z,98064.62
2023-01-13T03:34:57.639Z,98060.98
2023-01-13T03:37:33.505Z,98063.07
2023-01-13T03:40:08.774Z,98067.22
2023-01-13T03:42:38.340Z,98067.00
2023-01-13T03:45:12.259Z,98065.86
2023-01-13T03:47:42.796Z,98067.56
2023-01-13T03:50:17.726Z,98066.19
2023-01-13T03:52:52.092Z,98064.89
2023-01-13T03:55:24.813Z,98066.35
2023-01-13T03:58:06.959Z,98070.02
2023-01-13T04:00:46.510Z,98068.30
2023-01-13T04:03:23.288Z,98068.61
2023-01-13T04:05:56.709Z,98071.06
2023-01-13T04:08:27.065Z,98076.63
2023-01-13T04:11:07.440Z,98076.79
2023-01-13T04:13:39.356Z,98074.48
2023-01-13T04:16:09.004Z,98071.14
2023-01-13T04:18:39.034Z,98075.09
2023-01-13T04:21:08.046Z,98076.09
2023-01-13T04:23:37.560Z,98075.92
2023-01-13T04:26:05.710Z,98084.31
2023-01-13T04:28:35.215Z,98077.61
2023-01-13T04:31:03.331Z,98078.48
2023-01-13T04:33:31.266Z,98078.08
2023-01-13T04:35:59.640Z,98083.67
2023-01-13T04:38:27.811Z,98079.35
2023-01-13T04:40:55.883Z,98080.89
2023-01-13T04:43:23.848Z,98081.87
2023-01-13T04:45:52.065Z,98082.56
2023-01-13T04:48:20.180Z,98085.30
2023-01-13T04:50:48.141Z,98086.33
2023-01-13T04:53:16.307Z,98089.48
2023-01-13T04:55:44.675Z,98092.16
2023-01-13T04:58:13.615Z,98092.89
2023-01-13T05:00:42.000Z,98092.52
2023-01-13T05:03:10.393Z,98089.30
2023-01-13T05:05:39.048Z,98082.46
2023-01-13T05:08:07.178Z,98083.26
2023-01-13T05:10:35.168Z,98084.20
2023-01-13T05:13:21.559Z,98084.47
2023-01-13T05:16:10.512Z,98089.13
2023-01-13T05:18:40.990Z,98091.20
2023-01-13T05:21:29.089Z,98090.75
2023-01-13T05:24:16.908Z,98092.63
2023-01-13T05:26:44.991Z,98097.48
2023-01-13T05:29:12.987Z,98098.02
2023-01-13T05:31:41.447Z,98094.50
2023-01-13T05:34:10.016Z,98091.88
2023-01-13T05:36:38.425Z,98092.23
2023-01-13T05:39:09.366Z,98092.29
2023-01-13T05:41:55.914Z,98094.15
2023-01-13T05:44:24.494Z,98093.05
2023-01-13T05:46:52.685Z,98095.42
2023-01-13T05:49:20.698Z,98096.42
2023-01-13T05:51:49.203Z,98098.57
2023-01-13T05:54:17.955Z,98101.94
2023-01-13T05:56:46.065Z,98102.79
2023-01-13T05:59:16.930Z,98106.84
2023-01-13T06:01:45.999Z,98107.55
2023-01-13T06:04:14.075Z,98107.86
2023-01-13T06:06:43.626Z,98110.54
2023-01-13T06:09:11.854Z,98110.09
2023-01-13T06:11:39.863Z,98111.27
2023-01-13T06:14:08.108Z,98108.21
2023-01-13T06:16:36.339Z,98109.73
2023-01-13T06:19:09.101Z,98109.59
2023-01-13T06:21:37.990Z,98107.75
2023-01-13T06:24:08.011Z,98111.06
2023-01-13T06:26:41.607Z,98118.25
2023-01-13T06:29:14.713Z,98121.71
2023-01-13T06:31:44.070Z,98123.30
2023-01-13T06:34:14.286Z,98120.64
2023-01-13T06:36:48.498Z,98117.02
2023-01-13T06:39:20.244Z,98119.03
2023-01-13T06:42:11.445Z,98121.28
2023-01-13T06:44:39.987Z,98119.61
2023-01-13T06:47:11.584Z,98118.90
2023-01-13T06:49:39.577Z,98121.45
2023-01-13T06:52:09.025Z,98120.65
2023-01-13T06:54:37.128Z,98117.34
2023-01-13T06:57:05.629Z,98121.19
2023-01-13T06:59:35.268Z,98125.48
2023-01-13T07:02:06.009Z,98125.25
2023-01-13T07:04:34.040Z,98122.30
2023-01-13T07:07:02.130Z,98123.58
2023-01-13T07:09:30.124Z,98118.75
2023-01-13T07:11:59.686Z,98117.00
2023-01-13T07:14:46.557Z,98119.45
2023-01-13T07:17:14.771Z,98120.61
2023-01-13T07:19:42.899Z,98119.46
2023-01-13T07:22:15.871Z,98116.54
2023-01-13T07:24:44.463Z,98114.06
2023-01-13T07:27:12.532Z,98115.67
2023-01-13T07:29:41.674Z,98110.89
2023-01-13T07:32:11.007Z,98115.69
2023-01-13T07:34:39.135Z,98115.96
2023-01-13T07:37:08.058Z,98111.80
2023-01-13T07:39:35.979Z,98108.79
2023-01-13T07:42:24.196Z,98109.27
2023-01-13T07:44:52.164Z,98107.52
2023-01-13T07:47:23.301Z,98110.56
2023-01-13T07:49:51.468Z,98109.70
2023-01-13T07:52:19.558Z,98105.09
2023-01-13T07:54:47.743Z,98105.96
2023-01-13T07:57:17.642Z,98102.06
2023-01-13T07:59:45.845Z,98105.60
2023-01-13T08:02:14.226Z,98102.21
2023-01-13T08:04:42.470Z,98102.98
2023-01-13T08:07:11.213Z,98102.95
2023-01-13T08:09:39.284Z,98102.35
2023-01-13T08:12:25.911Z,98100.02
2023-01-13T08:14:54.387Z,98099.83
2023-01-13T08:17:22.543Z,98098.70
2023-01-13T08:19:50.483Z,98098.85
2023-01-13T08:22:18.537Z,98096.52
2023-01-13T08:24:46.840Z,98094.62
2023-01-13T08:27:15.511Z,98093.62
2023-01-13T08:29:43.880Z,98097.88
2023-01-13T08:32:12.427Z,98100.33
2023-01-13T08:34:41.254Z,98099.44
2023-01-13T08:37:09.646Z,98100.42
2023-01-13T08:39:43.222Z,98098.78
2023-01-13T08:42:11.327Z,98099.86
2023-01-13T08:44:39.613Z,98102.80
2023-01-13T08:47:10.224Z,98100.48
2023-01-13T08:49:38.490Z,98101.91
2023-01-13T08:52:41.910Z,98103.41
2023-01-13T08:55:25.715Z,98107.34
2023-01-13T08:58:00.485Z,98104.57
2023-01-13T09:00:35.517Z,98105.69
2023-01-13T09:03:06.206Z,98103.90
2023-01-13T09:05:36.644Z,98103.48
2023-01-13T09:08:04.995Z,98102.67
2023-01-13T09:10:35.916Z,98102.48
2023-01-13T09:13:13.144Z,98106.95
2023-01-13T09:15:46.142Z,98103.27
2023-01-13T09:18:14.771Z,98103.30
2023-01-13T09:20:45.385Z,98099.83
2023-01-13T09:23:13.432Z,98096.84
2023-01-13T09:25:41.644Z,98094.11
2023-01-13T09:28:13.762Z,98091.20
2023-01-13T09:30:42.222Z,98087.82
2023-01-13T09:33:29.201Z,98087.43
2023-01-13T09:36:01.396Z,98086.89
2023-01-13T09:38:31.776Z,98084.02
2023-01-13T09:40:59.937Z,98077.61
2023-01-13T09:43:56.616Z,98075.08
2023-01-13T09:46:45.387Z,98069.15
2023-01-13T09:49:25.139Z,98066.08
2023-01-13T09:52:21.063Z,98056.05
2023-01-13T09:54:53.120Z,98049.98
2023-01-13T09:57:21.980Z,98047.45
2023-01-13T09:59:54.356Z,98048.48
2023-01-13T10:02:37.384Z,98045.27
2023-01-13T10:05:11.099Z,98044.61
2023-01-13T10:07:57.740Z,98039.33
2023-01-13T10:10:54.354Z,98039.69
2023-01-13T10:13:28.387Z,98034.73
2023-01-13T10:16:11.487Z,98037.77
2023-01-13T10:19:10.892Z,98029.52
2023-01-13T10:21:42.266Z,98025.84
2023-01-13T10:24:20.536Z,98021.62
2023-01-13T10:27:24.080Z,98026.56
2023-01-13T10:29:52.748Z,98020.93
2023-01-13T10:32:20.931Z,98016.36
2023-01-13T10:34:51.670Z,98015.42
2023-01-13T10:37:28.188Z,98010.44
2023-01-13T10:40:01.957Z,98011.52
2023-01-13T10:42:30.065Z,98009.04
2023-01-13T10:45:02.952Z,98005.67
2023-01-13T10:47:34.491Z,98006.92
2023-01-13T10:50:10.838Z,98002.48
2023-01-13T10:52:43.612Z,97998.94
2023-01-13T10:55:35.619Z,97997.36
2023-01-13T10:58:21.520Z,97991.02
2023-01-13T11:00:58.663Z,97984.80
2023-01-13T11:03:36.557Z,97982.74
2023-01-13T11:06:04.946Z,97977.84
2023-01-13T11:08:45.481Z,97977.09
2023-01-13T11:11:44.492Z,97978.90
2023-01-13T11:14:41.558Z,97971.91
2023-01-13T11:17:40.657Z,97970.96
2023-01-13T11:20:11.998Z,97965.34
2023-01-13T11:22:53.095Z,97961.61
2023-01-13T11:25:42.973Z,97963.44
2023-01-13T11:28:30.462Z,97963.91
2023-01-13T11:31:24.728Z,97958.02
2023-01-13T11:34:08.324Z,97951.88
2023-01-13T11:36:46.469Z,97948.30
2023-01-13T11:39:44.438Z,97950.84
2023-01-13T11:42:31.577Z,97947.31
2023-01-13T11:45:28.901Z,97944.31
2023-01-13T11:48:00.552Z,97933.21
2023-01-13T11:50:41.697Z,97933.83
2023-01-13T11:53:41.697Z,97935.98
2023-01-13T11:56:40.836Z,97936.37
2023-01-13T11:59:09.152Z,97938.35
2023-01-13T12:01:46.920Z,97937.27
2023-01-13T12:04:38.916Z,97936.36
2023-01-13T12:07:32.775Z,97935.54
2023-01-13T12:10:30.075Z,97932.99
2023-01-13T12:13:14.406Z,97930.55
2023-01-13T12:16:01.317Z,97928.80
2023-01-13T12:18:50.019Z,97926.48
2023-01-13T12:21:21.520Z,97926.29
2023-01-13T12:24:02.274Z,97925.98
2023-01-13T12:26:37.803Z,97925.84
2023-01-13T12:29:20.935Z,97923.38
2023-01-13T12:31:52.215Z,97923.77
2023-01-13T12:34:29.239Z,97923.85
2023-01-13T12:37:08.945Z,97922.52
2023-01-13T12:39:57.354Z,97921.75
2023-01-13T12:42:46.728Z,97924.82
2023-01-13T12:45:15.780Z,97927.86
2023-01-13T12:47:48.816Z,97928.67
2023-01-13T12:50:23.709Z,97926.00
2023-01-13T12:52:52.303Z,97922.80
2023-01-13T12:55:38.924Z,97924.05
2023-01-13T12:58:08.251Z,97926.11
2023-01-13T13:00:38.348Z,97923.13
2023-01-13T13:03:12.680Z,97920.73
2023-01-13T13:06:18.539Z,97921.89
2023-01-13T13:09:04.415Z,97919.23
2023-01-13T13:11:58.568Z,97917.38
2023-01-13T13:14:42.022Z,97916.91
2023-01-13T13:17:32.450Z,97912.02
2023-01-13T13:20:03.857Z,97912.23
2023-01-13T13:22:46.539Z,97910.80
2023-01-13T13:25:22.798Z,97911.02
2023-01-13T13:28:02.727Z,97910.61
2023-01-13T13:30:36.854Z,97907.59
2023-01-13T13:33:21.052Z,97910.79
2023-01-13T13:36:03.731Z,97915.45
2023-01-13T13:39:21.627Z,97918.22
2023-01-13T13:42:12.697Z,97921.02
2023-01-13T13:45:05.321Z,97919.00
2023-01-13T13:47:38.001Z,97918.60
2023-01-13T13:50:19.802Z,97919.52
2023-01-13T13:53:05.905Z,97918.46
2023-01-13T13:55:36.801Z,97919.14
2023-01-13T13:58:05.994Z,97923.79
2023-01-13T14:00:38.195Z,97926.92
2023-01-13T14:03:20.928Z,97929.31
2023-01-13T14:05:56.417Z,97926.69
2023-01-13T14:08:25.420Z,97930.00
2023-01-13T14:10:54.805Z,97934.62
2023-01-13T14:13:31.496Z,97936.59
2023-01-13T14:16:06.893Z,97938.37
2023-01-13T14:18:49.367Z,97936.23
2023-01-13T14:21:25.129Z,97930.57
2023-01-13T14:24:15.572Z,97934.17
2023-01-13T14:26:43.777Z,97934.68
2023-01-13T14:29:18.498Z,97937.83
2023-01-13T14:31:47.833Z,97948.77
2023-01-13T14:34:30.639Z,97958.35
2023-01-13T14:37:03.085Z,97961.91
2023-01-13T14:39:41.731Z,97960.64
2023-01-13T14:42:15.607Z,97959.10
2023-01-13T14:44:51.077Z,97960.13
2023-01-13T14:47:21.903Z,97957.29
2023-01-13T14:50:05.778Z,97958.80
2023-01-13T14:52:38.320Z,97962.54
2023-01-13T14:55:06.951Z,97962.42
2023-01-13T14:57:41.808Z,97964.20
2023-01-13T15:00:15.899Z,97964.83
2023-01-13T15:03:05.781Z,97968.80
2023-01-13T15:05:42.728Z,97974.03
2023-01-13T15:08:14.782Z,97973.45
2023-01-13T15:10:54.861Z,97974.63
2023-01-13T15:13:22.843Z,97977.30
2023-01-13T15:15:53.522Z,97972.81
2023-01-13T15:18:21.751Z,97972.84
2023-01-13T15:20:52.436Z,97972.56
2023-01-13T15:23:21.160Z,97976.10
2023-01-13T15:25:49.861Z,97977.80
2023-01-13T15:28:25.462Z,97981.40
2023-01-13T15:31:00.729Z,97983.23
2023-01-13T15:33:30.913Z,97982.20
2023-01-13T15:35:59.083Z,97981.47
2023-01-13T15:38:30.543Z,97985.23
2023-01-13T15:41:01.281Z,97988.40
2023-01-13T15:43:48.504Z,97988.58
2023-01-13T15:46:37.370Z,97995.95
2023-01-13T15:49:13.357Z,97991.69
2023-01-13T15:51:41.633Z,97991.92
2023-01-13T15:54:09.726Z,97995.06
2023-01-13T15:56:39.680Z,97993.36
2023-01-13T15:59:34.621Z,97989.53
2023-01-13T16:02:03.376Z,97993.90
2023-01-13T16:04:31.581Z,97992.75
2023-01-13T16:07:10.155Z,97988.45
2023-01-13T16:09:39.406Z,97990.09
2023-01-13T16:12:08.054Z,97992.06
2023-01-13T16:14:36.781Z,97991.42
2023-01-13T16:17:17.433Z,97993.80
2023-01-13T16:19:46.570Z,97987.41
2023-01-13T16:22:16.321Z,97989.60
2023-01-13T16:24:45.757Z,97990.83
2023-01-13T16:27:17.404Z,97993.54
2023-01-13T16:29:46.887Z,97990.08
2023-01-13T16:32:17.476Z,97991.88
2023-01-13T16:34:46.864Z,97991.04
2023-01-13T16:37:20.979Z,97994.45
2023-01-13T16:39:49.198Z,97989.80
2023-01-13T16:42:17.800Z,97987.73
2023-01-13T16:44:48.297Z,97986.66
2023-01-13T16:47:17.898Z,97984.81
2023-01-13T16:49:46.492Z,97988.83
2023-01-13T16:52:17.907Z,97989.21
2023-01-13T16:54:46.072Z,97991.71
2023-01-13T16:57:15.283Z,97999.01
2023-01-13T16:59:44.625Z,98000.46
2023-01-13T17:02:20.258Z,98008.21
2023-01-13T17:04:50.101Z,98009.50
2023-01-13T17:07:18.509Z,98010.91
2023-01-13T17:09:46.584Z,98006.95
2023-01-13T17:12:14.721Z,98005.01
2023-01-13T17:14:43.542Z,98006.40
2023-01-13T17:17:28.210Z,98005.77
2023-01-13T17:19:56.615Z,98014.39
2023-01-13T17:22:25.603Z,98014.56
2023-01-13T17:24:54.995Z,98015.65
2023-01-13T17:27:23.535Z,98014.94
2023-01-13T17:29:52.548Z,98012.45
2023-01-13T17:32:23.072Z,98013.93
2023-01-13T17:34:54.073Z,98014.98
2023-01-13T17:37:22.954Z,98014.48
2023-01-13T17:39:53.764Z,98011.56
2023-01-13T17:42:25.100Z,98016.83
2023-01-13T17:44:53.236Z,98012.21
2023-01-13T17:47:21.756Z,98017.27
2023-01-13T17:49:50.477Z,98012.36
2023-01-13T17:52:18.975Z,98014.41
2023-01-13T17:54:47.378Z,98011.31
2023-01-13T17:57:15.355Z,98009.46
2023-01-13T17:59:43.544Z,98003.90
2023-01-13T18:02:12.794Z,98006.98
2023-01-13T18:04:41.730Z,98009.61
2023-01-13T18:07:10.434Z,98007.02
2023-01-13T18:09:39.249Z,98003.33
2023-01-13T18:12:07.456Z,98002.02
2023-01-13T18:14:35.484Z,98001.83
2023-01-13T18:17:03.805Z,98005.80
2023-01-13T18:19:51.151Z,98007.60
2023-01-13T18:22:37.908Z,98011.88
2023-01-13T18:25:25.014Z,98006.29
2023-01-13T18:27:53.135Z,98008.61
2023-01-13T18:30:21.478Z,98006.00
2023-01-13T18:32:49.628Z,98012.19
2023-01-13T18:35:20.070Z,98009.83
2023-01-13T18:37:48.365Z,98009.06
2023-01-13T18:40:17.449Z,98010.31
2023-01-13T18:42:54.810Z,98008.95
2023-01-13T18:45:32.468Z,98004.52
2023-01-13T18:48:02.780Z,98003.42
2023-01-13T18:50:37.072Z,97999.80
2023-01-13T18:53:05.346Z,98000.16
2023-01-13T18:55:33.518Z,98000.41
2023-01-13T18:58:01.587Z,98000.59
2023-01-13T19:00:36.723Z,98002.63
2023-01-13T19:05:38.294Z,98006.40
2023-01-13T19:08:06.988Z,98005.74
2023-01-13T19:10:36.217Z,98005.06
2023-01-13T19:13:12.023Z,97997.40
2023-01-13T19:15:41.721Z,97999.77
2023-01-13T19:18:09.937Z,97996.98
2023-01-13T19:20:38.393Z,97999.39
2023-01-13T19:23:06.601Z,97999.66
2023-01-13T19:25:36.117Z,98000.28
2023-01-13T19:28:04.497Z,97999.37
2023-01-13T19:30:32.666Z,98007.91
2023-01-13T19:33:00.758Z,98007.41
2023-01-13T19:35:29.000Z,98002.21
2023-01-13T19:37:58.499Z,97998.23
2023-01-13T19:40:27.339Z,98001.84
2023-01-13T19:43:14.017Z,98005.20
2023-01-13T19:45:42.362Z,98007.56
2023-01-13T19:48:10.950Z,98003.95
2023-01-13T19:50:40.480Z,98000.48
2023-01-13T19:53:16.639Z,98002.45
2023-01-13T19:55:49.289Z,98001.45
2023-01-13T19:58:20.724Z,98005.42
2023-01-13T20:00:51.500Z,98003.43
2023-01-13T20:03:26.198Z,98004.09
2023-01-13T20:06:04.038Z,98000.81
2023-01-13T20:08:34.501Z,98004.19
2023-01-13T20:11:21.301Z,98002.05
2023-01-13T20:13:52.070Z,98005.13
2023-01-13T20:16:20.210Z,98006.30
2023-01-13T20:18:51.873Z,98007.52
2023-01-13T20:21:19.884Z,98010.68
2023-01-13T20:23:53.813Z,98009.48
2023-01-13T20:26:21.813Z,98008.82
2023-01-13T20:28:49.750Z,98009.41
2023-01-13T20:31:17.966Z,98008.10
2023-01-13T20:33:51.031Z,98008.16
2023-01-13T20:36:31.506Z,98005.07
2023-01-13T20:39:02.291Z,98002.36
2023-01-13T20:41:49.003Z,98004.52
2023-01-13T20:44:17.015Z,98008.92
2023-01-13T20:46:45.607Z,98009.46
2023-01-13T20:49:15.281Z,98009.17
2023-01-13T20:51:43.206Z,98009.48
2023-01-13T20:54:11.457Z,98009.73
2023-01-13T20:56:41.798Z,98003.58
2023-01-13T20:59:10.615Z,98003.27
2023-01-13T21:01:38.967Z,98002.55
2023-01-13T21:04:07.260Z,98007.02
2023-01-13T21:06:36.238Z,98011.19
2023-01-13T21:09:04.680Z,98012.88
2023-01-13T21:11:51.433Z,98016.48
2023-01-13T21:14:41.280Z,98022.38
2023-01-13T21:17:31.419Z,98018.95
2023-01-13T21:20:04.308Z,98019.42
2023-01-13T21:22:32.848Z,98018.13
2023-01-13T21:25:02.435Z,98018.66
2023-01-13T21:27:31.440Z,98019.05
2023-01-13T21:29:59.456Z,98019.36
2023-01-13T21:32:27.541Z,98017.36
2023-01-13T21:34:59.418Z,98016.44
2023-01-13T21:37:27.577Z,98019.63
2023-01-13T21:39:55.922Z,98017.45
2023-01-13T21:42:43.130Z,98023.33
2023-01-13T21:45:30.171Z,98023.15
2023-01-13T21:47:58.378Z,98022.38
2023-01-13T21:50:28.861Z,98023.48
2023-01-13T21:52:58.545Z,98023.46
2023-01-13T21:55:29.794Z,98024.85
2023-01-13T21:57:57.751Z,98022.79
2023-01-13T22:00:29.823Z,98026.52
2023-01-13T22:03:00.294Z,98028.20
2023-01-13T22:05:28.472Z,98029.92
2023-01-13T22:07:56.457Z,98023.75
2023-01-13T22:10:27.357Z,98023.77
2023-01-13T22:12:57.912Z,98029.39
2023-01-13T22:15:28.457Z,98025.25
2023-01-13T22:17:57.248Z,98027.06
2023-01-13T22:20:26.765Z,98029.44
2023-01-13T22:22:54.723Z,98036.02
2023-01-13T22:25:23.749Z,98040.54
2023-01-13T22:27:56.473Z,98039.15
2023-01-13T22:30:25.237Z,98040.61
2023-01-13T22:32:54.261Z,98038.69
2023-01-13T22:35:22.320Z,98041.03
2023-01-13T22:37:50.426Z,98042.20
2023-01-13T22:40:18.728Z,98044.92
2023-01-13T22:42:46.927Z,98045.96
2023-01-13T22:45:15.409Z,98049.73
2023-01-13T22:47:44.286Z,98049.73
2023-01-13T22:50:12.726Z,98052.02
2023-01-13T22:52:40.841Z,98056.19
2023-01-13T22:55:09.541Z,98058.08
2023-01-13T22:57:47.754Z,98058.45
2023-01-13T23:00:21.008Z,98058.21
2023-01-13T23:02:51.078Z,98054.65
2023-01-13T23:05:19.280Z,98055.13
2023-01-13T23:07:47.325Z,98057.14
2023-01-13T23:10:15.662Z,98061.26
2023-01-13T23:12:43.819Z,98065.73
2023-01-13T23:15:13.094Z,98073.24
2023-01-13T23:17:41.520Z,98065.39
2023-01-13T23:20:10.687Z,98064.19
2023-01-13T23:22:40.840Z,98061.92
2023-01-13T23:25:10.045Z,98058.16
2023-01-13T23:27:38.415Z,98058.48
2023-01-13T23:30:09.170Z,98058.13
2023-01-13T23:32:37.558Z,98059.48
2023-01-13T23:35:06.076Z,98059.22
2023-01-13T23:37:34.535Z,98058.36
2023-01-13T23:40:04.497Z,98062.02
2023-01-13T23:42:32.482Z,98057.86
2023-01-13T23:45:01.984Z,98054.64
2023-01-13T23:47:30.463Z,98055.80
2023-01-13T23:49:58.443Z,98054.80
2023-01-13T23:52:27.879Z,98056.17
2023-01-13T23:54:57.184Z,98055.14
2023-01-13T23:57:25.759Z,98052.83
2023-01-13T23:59:53.800Z,98051.18
